createdAt,value
2019-02-15T02:26:02.390Z,6.67
2019-02-15T02:29:01.181Z,8.27
2019-02-15T04:31:58.489Z,4.57
2019-02-15T05:09:09.917Z,3.70
2019-02-15T05:13:27.458Z,5.53
2019-02-15T05:17:13.560Z,8.13
2019-02-15T05:52:35.522Z,7.40
2019-02-15T06:03:05.702Z,7.50
2019-02-15T06:18:47.227Z,13.03
2019-02-15T06:25:36.794Z,5.50
2019-02-15T06:28:41.827Z,7.83
2019-02-15T06:35:12.291Z,9.70
2019-02-15T06:41:26.456Z,6.57
2019-02-15T06:48:49.957Z,5.70
2019-02-15T06:52:21.415Z,4.73
2019-02-15T07:06:44.365Z,8.33
2019-02-15T07:09:19.397Z,8.63
2019-02-15T07:16:04.591Z,10.00
2019-02-15T07:22:11.504Z,8.03
2019-02-15T07:25:49.307Z,9.50
2019-02-15T07:32:47.616Z,6.07
2019-02-15T07:35:23.162Z,12.77
2019-02-15T07:41:51.037Z,17.50
2019-02-15T07:47:59.239Z,10.83
2019-02-15T07:50:32.888Z,8.63
2019-02-15T07:53:06.696Z,8.93
2019-02-15T07:55:44.189Z,10.23
2019-02-15T07:58:19.030Z,9.47
2019-02-15T08:00:56.717Z,8.93
2019-02-15T08:10:19.619Z,12.13
2019-02-15T08:20:03.920Z,8.10
2019-02-15T08:22:36.551Z,6.80
2019-02-15T08:25:29.084Z,9.37
2019-02-15T08:28:08.381Z,7.67
2019-02-15T08:30:41.304Z,7.93
2019-02-15T08:33:14.866Z,6.97
2019-02-15T08:35:47.258Z,8.87
2019-02-15T08:38:29.709Z,6.50
2019-02-15T08:41:04.134Z,7.23
2019-02-15T08:43:37.543Z,7.57
2019-02-15T08:46:09.895Z,6.70
2019-02-15T08:48:46.255Z,7.87
2019-02-15T08:51:16.484Z,6.07
2019-02-15T08:53:50.805Z,7.40
2019-02-15T08:56:23.164Z,6.27
2019-02-15T08:58:55.394Z,7.03
2019-02-15T09:01:28.074Z,7.60
2019-02-15T09:04:00.623Z,8.67
2019-02-15T09:06:33.717Z,6.30
2019-02-15T09:09:06.891Z,6.93
2019-02-15T09:11:41.096Z,7.23
2019-02-15T09:14:14.341Z,7.93
2019-02-15T09:21:05.804Z,8.93
2019-02-15T09:23:39.269Z,7.53
2019-02-15T09:29:08.830Z,8.33
2019-02-15T09:31:45.812Z,7.10
2019-02-15T09:34:53.209Z,8.20
2019-02-15T09:38:37.143Z,5.70
2019-02-15T09:41:10.848Z,6.70
2019-02-15T09:51:16.756Z,6.60
2019-02-15T10:03:32.734Z,6.60
2019-02-15T10:25:27.568Z,5.63
2019-02-15T10:28:12.419Z,4.93
2019-02-15T10:34:47.295Z,6.10
2019-02-15T10:43:48.355Z,8.47
2019-02-15T10:46:23.322Z,5.37
2019-02-15T10:48:58.740Z,4.83
2019-02-15T10:57:49.713Z,5.33
2019-02-15T11:00:28.748Z,5.83
2019-02-15T11:03:33.577Z,8.20
2019-02-15T11:06:15.552Z,4.63
2019-02-15T11:09:26.453Z,6.23
2019-02-15T11:12:27.599Z,3.40
2019-02-15T11:14:42.232Z,4.53
2019-02-15T11:21:02.143Z,3.47
2019-02-15T11:24:33.423Z,4.93
2019-02-15T11:39:52.579Z,3.60
2019-02-15T11:43:31.236Z,3.70
2019-02-15T11:48:02.056Z,3.20
2019-02-15T12:00:28.664Z,3.90
2019-02-15T12:12:21.040Z,4.43
2019-02-15T12:16:08.963Z,4.10
2019-02-15T13:00:03.199Z,1.80
2019-02-15T16:12:49.848Z,4.30
2019-02-15T18:46:22.704Z,7.33
2019-02-15T18:49:06.498Z,9.27
2019-02-15T18:51:57.336Z,11.23
2019-02-15T18:54:29.351Z,9.77
2019-02-15T18:57:01.225Z,9.00
2019-02-15T18:59:33.330Z,7.20
2019-02-15T19:02:05.239Z,9.03
2019-02-15T19:04:37.145Z,8.57
2019-02-15T19:07:09.045Z,9.17
2019-02-15T19:09:40.949Z,9.77
2019-02-15T19:12:12.841Z,10.87
2019-02-15T19:14:44.746Z,8.53
2019-02-15T19:17:16.652Z,10.07
2019-02-15T19:19:48.560Z,10.87
2019-02-15T19:22:20.472Z,11.07
2019-02-15T19:24:52.377Z,8.70
2019-02-15T19:27:24.288Z,11.17
2019-02-15T19:29:57.231Z,8.27
2019-02-15T19:32:34.419Z,9.57
2019-02-15T19:35:06.743Z,8.30
2019-02-15T19:37:38.637Z,7.80
2019-02-15T19:40:12.237Z,7.53
2019-02-15T19:42:46.495Z,10.23
2019-02-15T19:45:18.404Z,7.90
2019-02-15T19:47:50.300Z,9.47
2019-02-15T19:50:22.209Z,11.23
2019-02-15T19:52:56.363Z,8.83
2019-02-15T19:55:28.312Z,11.63
2019-02-15T19:58:00.227Z,11.07
2019-02-15T20:00:32.139Z,8.97
2019-02-15T20:03:04.040Z,8.10
2019-02-15T20:05:35.950Z,10.70
2019-02-15T20:08:07.956Z,10.37
2019-02-15T20:10:39.950Z,8.17
2019-02-15T20:13:13.006Z,11.87
2019-02-15T20:15:44.913Z,7.73
2019-02-15T20:18:17.993Z,11.40
2019-02-15T20:20:49.893Z,8.07
2019-02-15T20:23:21.811Z,10.70
2019-02-15T20:25:53.700Z,9.77
2019-02-15T20:28:25.611Z,9.47
2019-02-15T20:30:58.447Z,9.67
2019-02-15T20:33:30.354Z,7.53
2019-02-15T20:36:02.269Z,10.40
2019-02-15T20:38:34.175Z,10.87
2019-02-15T20:41:06.079Z,9.93
2019-02-15T20:43:37.979Z,9.70
2019-02-15T20:46:09.895Z,11.47
2019-02-15T20:48:41.806Z,10.37
2019-02-15T20:51:13.777Z,10.57
2019-02-15T20:53:48.273Z,8.43
2019-02-15T20:56:28.281Z,9.03
2019-02-15T20:59:00.191Z,9.00
2019-02-15T21:01:33.614Z,9.40
2019-02-15T21:04:06.294Z,12.60
2019-02-15T21:06:38.194Z,12.93
2019-02-15T21:09:10.107Z,15.00
2019-02-15T21:11:42.022Z,11.13
2019-02-15T21:14:13.944Z,15.50
2019-02-15T21:16:46.150Z,9.13
2019-02-15T21:19:20.015Z,10.67
2019-02-15T21:21:51.937Z,10.37
2019-02-15T21:24:23.843Z,9.57
2019-02-15T21:27:06.085Z,10.20
2019-02-15T21:29:38.290Z,11.83
2019-02-15T21:32:10.213Z,11.20
2019-02-15T21:34:42.123Z,12.93
2019-02-15T21:37:18.209Z,11.17
2019-02-15T21:39:50.112Z,10.03
2019-02-15T21:42:22.024Z,11.30
2019-02-15T21:44:56.392Z,10.47
2019-02-15T21:47:28.309Z,9.23
2019-02-15T21:50:00.323Z,8.73
2019-02-15T21:52:32.198Z,7.00
2019-02-15T21:55:05.577Z,8.73
2019-02-15T21:57:37.551Z,8.70
2019-02-15T22:00:13.271Z,12.83
2019-02-15T22:02:45.184Z,8.63
2019-02-15T22:05:18.994Z,8.10
2019-02-15T22:07:53.421Z,7.83
2019-02-15T22:10:25.341Z,12.47
2019-02-15T22:12:57.266Z,7.23
2019-02-15T22:15:29.175Z,9.90
2019-02-15T22:18:04.350Z,11.63
2019-02-15T22:20:37.180Z,14.40
2019-02-15T22:23:09.101Z,13.43
2019-02-15T22:25:41.013Z,11.73
2019-02-15T22:28:12.920Z,12.10
2019-02-15T22:30:44.826Z,13.13
2019-02-15T22:33:16.735Z,13.23
2019-02-15T22:35:48.636Z,9.70
2019-02-15T22:38:21.860Z,10.20
2019-02-15T22:41:14.068Z,10.77
2019-02-15T22:43:49.034Z,9.70
2019-02-15T22:46:20.945Z,9.63
2019-02-15T22:48:52.871Z,11.63
2019-02-15T22:51:25.936Z,7.60
2019-02-15T22:54:01.698Z,8.83
2019-02-15T22:56:34.450Z,9.70
2019-02-15T22:59:06.362Z,8.80
2019-02-15T23:01:41.496Z,7.87
2019-02-15T23:04:13.776Z,10.23
2019-02-15T23:06:45.692Z,11.13
2019-02-15T23:09:25.561Z,9.77
2019-02-15T23:11:57.656Z,11.20
2019-02-15T23:14:29.890Z,8.87
2019-02-15T23:17:01.799Z,11.63
2019-02-15T23:19:33.716Z,10.10
2019-02-15T23:22:05.645Z,7.70
2019-02-15T23:24:37.560Z,9.77
2019-02-15T23:27:09.463Z,10.10
2019-02-15T23:29:41.374Z,11.73
2019-02-15T23:32:13.275Z,14.77
2019-02-15T23:34:45.182Z,9.70
2019-02-15T23:37:17.092Z,13.73
2019-02-15T23:39:49.010Z,12.27
2019-02-15T23:42:21.279Z,13.20
2019-02-15T23:44:53.193Z,10.07
2019-02-15T23:47:25.107Z,11.50
2019-02-15T23:49:57.032Z,10.90
2019-02-15T23:52:28.945Z,11.13
2019-02-15T23:55:00.881Z,8.63
2019-02-15T23:57:32.782Z,8.27
